createdAt,value
2023-03-04T02:02:11.131Z,23.05
2023-03-04T02:03:17.443Z,26.02
2023-03-04T02:04:23.892Z,25.13
2023-03-04T02:05:27.749Z,25.48
2023-03-04T02:06:30.359Z,26.40
2023-03-04T02:07:33.835Z,25.13
2023-03-04T02:08:36.402Z,25.00
2023-03-04T02:09:38.805Z,25.65
2023-03-04T02:10:43.408Z,26.40
2023-03-04T02:11:46.769Z,26.98
2023-03-04T02:12:49.866Z,24.52
2023-03-04T02:13:52.703Z,24.67
2023-03-04T02:14:54.910Z,25.30
2023-03-04T02:15:57.105Z,25.63
2023-03-04T02:16:59.382Z,25.73
2023-03-04T02:18:02.393Z,27.00
2023-03-04T02:19:32.346Z,27.40
2023-03-04T02:21:19.102Z,26.33
2023-03-04T02:22:21.431Z,26.02
2023-03-04T02:23:35.280Z,26.77
2023-03-04T02:24:47.890Z,26.55
2023-03-04T02:26:17.724Z,25.60
2023-03-04T02:27:22.360Z,25.77
2023-03-04T02:28:25.203Z,23.60
2023-03-04T02:29:28.345Z,25.52
2023-03-04T02:30:31.574Z,25.02
2023-03-04T02:31:40.760Z,24.98
2023-03-04T02:32:42.984Z,24.67
2023-03-04T02:33:45.802Z,24.83
2023-03-04T02:34:50.627Z,24.92
2023-03-04T02:35:53.165Z,25.45
2023-03-04T02:36:56.351Z,25.95
2023-03-04T02:37:58.751Z,25.13
2023-03-04T02:39:05.504Z,23.40
2023-03-04T02:40:21.759Z,24.80
2023-03-04T02:41:29.496Z,22.73
2023-03-04T02:42:33.044Z,22.70
2023-03-04T02:43:35.262Z,24.40
2023-03-04T02:44:40.073Z,25.58
2023-03-04T02:45:49.298Z,24.30
2023-03-04T02:46:52.409Z,23.77
2023-03-04T02:47:54.687Z,23.48
2023-03-04T02:48:56.949Z,23.55
2023-03-04T02:49:59.352Z,23.75
2023-03-04T02:51:02.195Z,24.10
2023-03-04T02:52:14.302Z,25.02
2023-03-04T02:53:17.417Z,23.42
2023-03-04T02:54:22.230Z,22.48
2023-03-04T02:55:24.773Z,23.98
2023-03-04T02:56:27.060Z,23.95
2023-03-04T02:57:29.701Z,25.00
2023-03-04T02:58:32.053Z,25.83
2023-03-04T02:59:35.339Z,24.73
2023-03-04T03:00:38.182Z,24.63
2023-03-04T03:01:40.641Z,25.02
2023-03-04T03:02:43.231Z,24.90
2023-03-04T03:03:46.556Z,24.45
2023-03-04T03:04:48.829Z,25.85
2023-03-04T03:05:54.624Z,23.00
2023-03-04T03:06:57.360Z,24.00
2023-03-04T03:08:00.701Z,24.92
2023-03-04T03:09:03.402Z,23.45
2023-03-04T03:10:06.326Z,23.60
2023-03-04T03:11:09.311Z,24.67
2023-03-04T03:12:12.622Z,24.77
2023-03-04T03:13:14.832Z,23.33
2023-03-04T03:14:17.213Z,22.63
2023-03-04T03:15:20.153Z,22.58
2023-03-04T03:16:22.974Z,21.40
2023-03-04T03:17:26.328Z,22.63
2023-03-04T03:18:28.697Z,23.55
2023-03-04T03:19:30.940Z,22.05
2023-03-04T03:20:33.165Z,22.42
2023-03-04T03:21:35.592Z,22.38
2023-03-04T03:22:48.256Z,23.85
2023-03-04T03:23:50.605Z,23.23
2023-03-04T03:24:52.848Z,23.27
2023-03-04T03:25:55.057Z,22.25
2023-03-04T03:26:57.285Z,23.63
2023-03-04T03:27:59.890Z,24.15
2023-03-04T03:29:02.209Z,22.60
2023-03-04T03:30:05.870Z,23.73
2023-03-04T03:31:08.685Z,22.60
2023-03-04T03:32:11.116Z,22.98
2023-03-04T03:33:13.556Z,24.05
2023-03-04T03:34:15.922Z,23.80
2023-03-04T03:35:18.400Z,22.55
2023-03-04T03:36:20.816Z,22.35
2023-03-04T03:37:24.072Z,24.73
2023-03-04T03:38:27.115Z,25.00
2023-03-04T03:39:29.753Z,23.30
2023-03-04T03:40:32.068Z,22.60
2023-03-04T03:41:34.401Z,23.50
2023-03-04T03:42:36.634Z,25.38
2023-03-04T03:43:38.896Z,23.48
2023-03-04T03:44:41.155Z,26.05
2023-03-04T03:45:43.429Z,24.85
2023-03-04T03:46:46.770Z,22.98
2023-03-04T03:47:48.981Z,23.80
2023-03-04T03:48:51.267Z,24.75
2023-03-04T03:49:53.492Z,24.35
2023-03-04T03:50:55.714Z,26.52
2023-03-04T03:51:57.997Z,28.45
2023-03-04T03:53:00.440Z,30.52
2023-03-04T03:54:02.659Z,31.25
2023-03-04T03:55:05.795Z,30.85
2023-03-04T03:56:08.083Z,29.45
2023-03-04T03:57:10.395Z,29.52
2023-03-04T03:58:12.714Z,29.30
2023-03-04T03:59:15.099Z,28.15
2023-03-04T04:00:17.736Z,26.98
2023-03-04T04:01:20.034Z,26.92
2023-03-04T04:02:22.851Z,25.23
2023-03-04T04:03:25.587Z,25.73
2023-03-04T04:04:27.918Z,27.63
2023-03-04T04:05:30.200Z,26.45
2023-03-04T04:06:32.777Z,27.48
2023-03-04T04:07:36.279Z,24.63
2023-03-04T04:08:38.847Z,24.17
2023-03-04T04:09:41.054Z,23.88
2023-03-04T04:10:44.387Z,24.30
2023-03-04T04:11:46.764Z,24.30
2023-03-04T04:12:49.050Z,22.52
2023-03-04T04:13:51.256Z,22.88
2023-03-04T04:14:53.459Z,24.35
2023-03-04T04:15:55.741Z,23.05
2023-03-04T04:16:58.009Z,23.77
2023-03-04T04:18:00.223Z,22.95
2023-03-04T04:19:02.475Z,22.67
2023-03-04T04:20:06.382Z,22.98
2023-03-04T04:21:09.722Z,23.15
2023-03-04T04:22:15.583Z,22.85
2023-03-04T04:23:17.903Z,24.45
2023-03-04T04:24:20.208Z,24.95
2023-03-04T04:25:22.430Z,24.80
2023-03-04T04:26:24.733Z,24.98
2023-03-04T04:27:26.998Z,24.30
2023-03-04T04:28:29.178Z,25.00
2023-03-04T04:29:31.832Z,24.25
2023-03-04T04:30:34.960Z,25.35
2023-03-04T04:31:37.265Z,26.40
2023-03-04T04:32:39.574Z,24.30
2023-03-04T04:33:41.811Z,24.20
2023-03-04T04:34:44.031Z,24.38
2023-03-04T04:35:46.280Z,25.52
2023-03-04T04:36:48.590Z,24.52
2023-03-04T04:37:50.973Z,25.33
2023-03-04T04:38:53.510Z,23.77
2023-03-04T04:39:55.742Z,25.45
2023-03-04T04:40:59.570Z,25.83
2023-03-04T04:42:01.813Z,25.73
2023-03-04T04:43:04.242Z,25.08
2023-03-04T04:44:07.191Z,23.55
2023-03-04T04:45:09.852Z,24.20
2023-03-04T04:46:12.211Z,23.83
2023-03-04T04:47:14.631Z,23.95
2023-03-04T04:48:17.018Z,24.58
2023-03-04T04:49:19.364Z,25.00
2023-03-04T04:50:21.610Z,24.42
2023-03-04T04:51:23.904Z,24.92
2023-03-04T04:52:26.042Z,24.10
2023-03-04T04:53:28.247Z,24.27
2023-03-04T04:54:30.789Z,24.58
2023-03-04T04:55:34.820Z,24.42
2023-03-04T04:56:37.118Z,26.45
2023-03-04T04:57:39.420Z,24.95
2023-03-04T04:58:41.720Z,25.10
2023-03-04T04:59:43.946Z,25.15
2023-03-04T05:00:46.250Z,24.55
2023-03-04T05:01:48.475Z,24.17
2023-03-04T05:02:50.826Z,24.35
2023-03-04T05:03:53.401Z,26.45
2023-03-04T05:04:55.628Z,24.77
2023-03-04T05:05:58.146Z,24.75
2023-03-04T05:07:00.329Z,23.67
2023-03-04T05:08:02.623Z,24.52
2023-03-04T05:09:05.960Z,23.67
2023-03-04T05:10:09.337Z,23.00
2023-03-04T05:11:11.599Z,23.67
2023-03-04T05:12:13.817Z,22.80
2023-03-04T05:13:16.036Z,23.73
2023-03-04T05:14:18.379Z,24.75
2023-03-04T05:15:20.701Z,24.65
2023-03-04T05:16:22.909Z,23.80
2023-03-04T05:17:25.221Z,22.65
2023-03-04T05:18:28.172Z,24.52
2023-03-04T05:19:30.397Z,22.65
2023-03-04T05:20:32.589Z,23.38
2023-03-04T05:21:34.934Z,22.95
2023-03-04T05:22:37.600Z,25.00
2023-03-04T05:23:42.249Z,24.10
2023-03-04T05:24:44.628Z,22.95
2023-03-04T05:25:47.486Z,24.63
2023-03-04T05:26:49.699Z,24.15
2023-03-04T05:27:51.906Z,25.48
2023-03-04T05:28:54.453Z,25.17
2023-03-04T05:29:59.899Z,24.40
2023-03-04T05:31:03.310Z,25.30
2023-03-04T05:32:05.612Z,24.05
2023-03-04T05:33:08.901Z,25.00
2023-03-04T05:34:11.170Z,24.95
2023-03-04T05:35:13.406Z,26.15
2023-03-04T05:36:15.692Z,24.05
2023-03-04T05:37:18.123Z,25.20
2023-03-04T05:38:20.910Z,24.92
2023-03-04T05:39:23.231Z,24.92
2023-03-04T05:40:25.696Z,24.15
2023-03-04T05:41:27.941Z,24.65
2023-03-04T05:42:30.204Z,26.45
2023-03-04T05:43:35.424Z,27.00
2023-03-04T05:44:37.686Z,27.23
2023-03-04T05:45:40.422Z,26.23
2023-03-04T05:46:42.697Z,26.70
2023-03-04T05:47:45.072Z,25.42
2023-03-04T05:48:47.319Z,26.35
2023-03-04T05:49:49.660Z,25.33
2023-03-04T05:50:59.873Z,25.38
2023-03-04T05:52:02.182Z,25.83
2023-03-04T05:53:04.516Z,25.23
2023-03-04T05:54:06.741Z,25.70
2023-03-04T05:55:09.255Z,24.05
2023-03-04T05:56:17.055Z,24.85
2023-03-04T05:57:19.315Z,24.50
2023-03-04T05:58:21.626Z,24.85
2023-03-04T05:59:23.987Z,26.30
2023-03-04T06:00:27.060Z,27.08
2023-03-04T06:01:30.200Z,25.13
2023-03-04T06:02:32.481Z,25.08
2023-03-04T06:03:35.591Z,25.48
2023-03-04T06:04:37.850Z,25.75
2023-03-04T06:05:40.140Z,26.50
2023-03-04T06:06:42.363Z,25.88
2023-03-04T06:07:44.979Z,26.00
2023-03-04T06:08:47.244Z,25.65
2023-03-04T06:09:49.459Z,26.08
2023-03-04T06:10:53.864Z,26.75
2023-03-04T06:11:56.152Z,27.98
2023-03-04T06:12:58.413Z,28.73
2023-03-04T06:20:08.741Z,25.90
2023-03-04T06:21:10.956Z,26.55
2023-03-04T06:22:13.147Z,28.60
2023-03-04T06:23:15.399Z,27.98
2023-03-04T06:24:17.598Z,27.08
2023-03-04T06:25:19.859Z,26.50
2023-03-04T06:26:22.157Z,29.40
2023-03-04T06:27:24.471Z,28.40
2023-03-04T06:28:27.372Z,27.38
2023-03-04T06:29:29.681Z,27.40
2023-03-04T06:30:32.006Z,32.35
2023-03-04T06:31:34.309Z,28.17
2023-03-04T06:32:36.609Z,29.67
2023-03-04T06:33:38.836Z,30.60
2023-03-04T06:34:41.920Z,32.15
2023-03-04T06:35:44.421Z,32.05
2023-03-04T06:36:47.250Z,36.30
2023-03-04T06:37:49.729Z,35.08
2023-03-04T06:38:51.938Z,31.35
2023-03-04T06:39:54.821Z,33.97
2023-03-04T06:40:57.641Z,34.35
2023-03-04T06:42:00.057Z,32.90
2023-03-04T06:43:02.322Z,36.10
2023-03-04T06:44:05.337Z,36.17
2023-03-04T06:45:08.436Z,35.88
2023-03-04T06:46:10.824Z,34.45
2023-03-04T06:47:13.083Z,32.22
2023-03-04T06:48:15.292Z,32.33
2023-03-04T06:49:17.620Z,35.63
2023-03-04T06:50:19.839Z,35.10
2023-03-04T06:51:22.035Z,36.05
2023-03-04T06:52:24.568Z,34.85
2023-03-04T06:53:26.776Z,34.10
2023-03-04T06:54:29.012Z,37.47
2023-03-04T06:55:31.223Z,36.45
2023-03-04T06:56:33.509Z,38.42
2023-03-04T06:57:36.181Z,35.92
2023-03-04T06:58:39.030Z,36.47
2023-03-04T06:59:41.328Z,36.75
2023-03-04T07:00:44.525Z,36.90
2023-03-04T07:01:46.808Z,36.25
2023-03-04T07:02:49.012Z,37.08
2023-03-04T07:03:52.521Z,40.40
2023-03-04T07:04:54.833Z,39.53
2023-03-04T07:05:57.032Z,41.55
2023-03-04T07:06:59.416Z,39.97
2023-03-04T07:08:01.648Z,40.78
2023-03-04T07:09:03.910Z,38.08
2023-03-04T07:10:06.449Z,40.22
2023-03-04T07:11:08.958Z,40.63
2023-03-04T07:12:11.173Z,44.67
2023-03-04T07:13:13.345Z,45.63
2023-03-04T07:14:15.649Z,44.72
2023-03-04T07:15:17.848Z,42.58
2023-03-04T07:16:22.229Z,44.20
2023-03-04T07:17:24.642Z,48.92
2023-03-04T07:18:27.323Z,50.00
2023-03-04T07:19:30.045Z,54.22
2023-03-04T07:20:32.532Z,44.47
2023-03-04T07:21:35.217Z,45.10
2023-03-04T07:22:37.837Z,44.05
2023-03-04T07:23:40.239Z,40.10
2023-03-04T07:24:42.587Z,40.38
2023-03-04T07:25:45.403Z,39.00
2023-03-04T07:26:47.627Z,38.83
2023-03-04T07:27:49.952Z,39.47
2023-03-04T07:28:54.365Z,39.05
2023-03-04T07:29:56.522Z,38.85
2023-03-04T07:31:31.414Z,39.50
2023-03-04T07:32:35.698Z,37.00
2023-03-04T07:33:38.227Z,36.85
2023-03-04T07:34:40.444Z,38.58
2023-03-04T07:35:42.832Z,39.10
2023-03-04T07:36:45.487Z,36.17
2023-03-04T07:37:47.890Z,39.33
2023-03-04T07:38:51.324Z,37.03
2023-03-04T07:39:53.526Z,39.83
2023-03-04T07:40:57.303Z,38.80
2023-03-04T07:41:59.502Z,38.20
2023-03-04T07:43:01.812Z,39.53
2023-03-04T07:44:05.077Z,37.35
2023-03-04T07:45:09.677Z,40.08
2023-03-04T07:46:11.975Z,40.38
2023-03-04T07:47:14.241Z,40.97
2023-03-04T07:48:16.667Z,38.20
2023-03-04T07:49:18.947Z,40.13
2023-03-04T07:50:22.367Z,39.35
2023-03-04T07:51:26.319Z,40.17
2023-03-04T07:52:28.559Z,41.25
2023-03-04T07:53:32.206Z,41.10
2023-03-04T07:54:34.567Z,42.30
2023-03-04T07:55:36.803Z,40.25
2023-03-04T07:56:39.036Z,40.90
2023-03-04T07:57:47.069Z,41.67
2023-03-04T07:58:50.262Z,39.97
2023-03-04T07:59:52.456Z,41.72
2023-03-04T08:00:54.684Z,41.55
2023-03-04T08:01:56.911Z,40.17
2023-03-04T08:02:59.189Z,41.65
2023-03-04T08:04:02.103Z,41.70
2023-03-04T08:05:04.716Z,40.88
2023-03-04T08:06:08.913Z,42.47
2023-03-04T08:07:11.584Z,41.08
2023-03-04T08:08:16.975Z,41.33
2023-03-04T08:09:19.602Z,43.03
2023-03-04T08:10:21.833Z,40.40
2023-03-04T08:11:24.024Z,42.17
2023-03-04T08:12:26.696Z,45.47
2023-03-04T08:13:28.904Z,45.05
2023-03-04T08:14:31.209Z,44.63
2023-03-04T08:15:35.360Z,41.50
2023-03-04T08:16:38.066Z,41.10
2023-03-04T08:17:40.342Z,40.70
2023-03-04T08:18:48.493Z,39.90
2023-03-04T08:19:50.806Z,39.47
2023-03-04T08:20:53.125Z,38.65
2023-03-04T08:21:55.387Z,39.15
2023-03-04T08:22:57.622Z,39.22
2023-03-04T08:24:04.050Z,38.38
2023-03-04T08:25:06.428Z,40.30
2023-03-04T08:26:11.000Z,39.25
2023-03-04T08:27:13.474Z,39.67
2023-03-04T08:28:15.907Z,40.10
2023-03-04T08:29:21.943Z,38.65
2023-03-04T08:30:24.119Z,38.50
2023-03-04T08:31:26.424Z,39.05
2023-03-04T08:32:28.840Z,36.33
2023-03-04T08:33:32.092Z,36.58
2023-03-04T08:34:34.352Z,35.72
2023-03-04T08:35:39.005Z,36.22
2023-03-04T08:36:44.987Z,34.85
2023-03-04T08:37:47.263Z,37.88
2023-03-04T08:38:50.148Z,39.15
2023-03-04T08:39:52.641Z,36.83
2023-03-04T08:40:56.251Z,37.55
2023-03-04T08:41:58.571Z,37.33
2023-03-04T08:43:01.200Z,36.92
2023-03-04T08:44:03.831Z,38.75
2023-03-04T08:45:06.454Z,37.78
2023-03-04T08:46:08.710Z,37.65
2023-03-04T08:47:11.698Z,37.17
2023-03-04T08:48:14.026Z,37.42
2023-03-04T08:49:16.318Z,37.40
2023-03-04T08:50:20.754Z,37.50
2023-03-04T08:51:24.932Z,36.80
2023-03-04T08:52:29.986Z,36.97
2023-03-04T08:53:32.249Z,35.85
2023-03-04T08:54:34.423Z,36.88
2023-03-04T08:55:41.165Z,39.03
2023-03-04T08:56:43.434Z,35.90
2023-03-04T08:57:45.933Z,37.80
2023-03-04T08:58:48.128Z,36.13
2023-03-04T08:59:50.678Z,36.85
2023-03-04T09:00:52.888Z,35.88
2023-03-04T09:01:55.228Z,38.47
2023-03-04T09:02:57.504Z,35.08
2023-03-04T09:03:59.788Z,37.03
2023-03-04T09:05:02.079Z,35.38
2023-03-04T09:06:04.913Z,35.78
2023-03-04T09:07:08.936Z,35.67
2023-03-04T09:08:11.119Z,35.10
2023-03-04T09:09:13.349Z,35.55
2023-03-04T09:10:15.950Z,35.65
2023-03-04T09:11:18.405Z,35.15
2023-03-04T09:12:20.724Z,35.28
2023-03-04T09:13:26.269Z,37.20
2023-03-04T09:14:28.717Z,34.70
2023-03-04T09:15:31.042Z,35.50
2023-03-04T09:16:33.324Z,34.58
2023-03-04T09:17:35.588Z,36.38
2023-03-04T09:18:39.325Z,34.85
2023-03-04T09:19:41.558Z,35.38
2023-03-04T09:20:45.125Z,35.15
2023-03-04T09:21:47.351Z,34.30
2023-03-04T09:22:50.065Z,34.47
2023-03-04T09:23:52.697Z,35.25
2023-03-04T09:24:55.353Z,35.17
2023-03-04T09:25:57.852Z,34.20
2023-03-04T09:27:03.386Z,34.38
2023-03-04T09:28:06.742Z,33.97
2023-03-04T09:29:10.157Z,35.85
2023-03-04T09:30:12.922Z,34.17
2023-03-04T09:31:15.437Z,34.88
2023-03-04T09:32:18.001Z,32.25
2023-03-04T09:33:20.233Z,32.15
2023-03-04T09:34:22.489Z,31.40
2023-03-04T09:35:25.426Z,31.30
2023-03-04T09:36:27.753Z,33.38
2023-03-04T09:37:29.989Z,34.20
2023-03-04T09:38:32.234Z,33.45
2023-03-04T09:39:34.606Z,32.35
2023-03-04T09:40:46.598Z,32.63
2023-03-04T09:41:53.108Z,31.67
2023-03-04T09:43:03.507Z,32.85
2023-03-04T09:44:15.250Z,32.10
2023-03-04T09:45:23.532Z,32.38
2023-03-04T09:46:34.224Z,31.27
2023-03-04T09:47:37.689Z,33.10
2023-03-04T09:48:46.958Z,32.22
2023-03-04T09:49:58.954Z,33.25
2023-03-04T09:51:41.433Z,33.08
2023-03-04T09:53:03.815Z,30.25
2023-03-04T09:54:51.043Z,33.75
2023-03-04T09:55:53.388Z,33.08
2023-03-04T09:57:06.497Z,31.83
2023-03-04T09:58:27.152Z,33.10
2023-03-04T09:59:35.379Z,32.47
2023-03-04T10:00:46.753Z,32.60
2023-03-04T10:01:58.101Z,33.83
2023-03-04T10:03:12.102Z,34.30
2023-03-04T10:04:37.411Z,33.35
2023-03-04T10:06:05.739Z,34.97
2023-03-04T10:07:21.003Z,35.28
2023-03-04T10:08:42.002Z,33.72
2023-03-04T10:09:49.739Z,35.25
2023-03-04T10:10:54.349Z,35.85
2023-03-04T10:12:05.853Z,35.65
2023-03-04T10:13:16.809Z,36.13
2023-03-04T10:14:21.746Z,35.78
2023-03-04T10:15:29.809Z,35.72
2023-03-04T10:16:42.466Z,35.83
2023-03-04T10:17:49.548Z,36.50
2023-03-04T10:19:16.004Z,35.53
2023-03-04T10:20:27.407Z,34.28
2023-03-04T10:21:34.106Z,32.78
2023-03-04T10:22:45.130Z,32.42
2023-03-04T10:23:48.351Z,34.38
2023-03-04T10:24:53.578Z,33.70
2023-03-04T10:25:56.913Z,32.33
2023-03-04T10:27:06.960Z,34.85
2023-03-04T10:28:29.810Z,33.17
2023-03-04T10:29:33.260Z,36.63
2023-03-04T10:30:56.623Z,33.45
2023-03-04T10:31:59.270Z,34.50
2023-03-04T10:33:12.432Z,33.53
2023-03-04T10:34:15.560Z,34.88
2023-03-04T10:35:20.560Z,35.50
2023-03-04T10:36:31.719Z,37.95
2023-03-04T10:37:49.125Z,40.28
2023-03-04T10:38:57.167Z,34.42
2023-03-04T10:40:01.129Z,35.88
2023-03-04T10:41:16.534Z,38.00
2023-03-04T10:42:19.641Z,37.22
2023-03-04T10:43:23.094Z,37.58
2023-03-04T10:44:26.123Z,37.00
2023-03-04T10:45:35.222Z,37.60
2023-03-04T10:46:38.706Z,36.92
2023-03-04T10:47:40.883Z,37.35
2023-03-04T10:48:44.817Z,38.85
2023-03-04T10:49:55.443Z,38.95
2023-03-04T10:51:11.966Z,39.60
2023-03-04T10:52:29.582Z,38.45
2023-03-04T10:53:37.605Z,39.45
2023-03-04T10:54:46.258Z,38.17
2023-03-04T10:55:48.516Z,39.08
2023-03-04T10:56:58.188Z,38.67
2023-03-04T10:58:06.447Z,40.17
2023-03-04T10:59:32.046Z,39.33
2023-03-04T11:00:36.624Z,39.72
2023-03-04T11:01:38.829Z,40.78
2023-03-04T11:02:41.102Z,39.42
2023-03-04T11:03:49.647Z,38.85
2023-03-04T11:05:06.264Z,39.88
2023-03-04T11:06:20.935Z,38.80
2023-03-04T11:07:28.003Z,39.15
2023-03-04T11:08:30.226Z,38.72
2023-03-04T11:09:32.566Z,38.92
2023-03-04T11:10:37.544Z,39.15
2023-03-04T11:11:44.677Z,38.42
2023-03-04T11:13:00.380Z,37.35
2023-03-04T11:14:16.148Z,35.92
2023-03-04T11:15:27.194Z,38.35
2023-03-04T11:16:32.553Z,37.40
2023-03-04T11:17:47.119Z,35.47
2023-03-04T11:18:53.724Z,36.03
2023-03-04T11:20:02.216Z,36.50
2023-03-04T11:21:06.758Z,36.97
2023-03-04T11:22:15.728Z,36.13
2023-03-04T11:23:50.877Z,36.65
2023-03-04T11:25:22.553Z,42.88
2023-03-04T11:26:42.826Z,39.15
2023-03-04T11:27:51.513Z,32.13
2023-03-04T11:29:09.236Z,34.35
2023-03-04T11:30:25.522Z,34.95
2023-03-04T11:31:33.792Z,33.20
2023-03-04T11:32:43.810Z,33.42
2023-03-04T11:34:14.050Z,33.53
2023-03-04T11:35:42.338Z,30.60
2023-03-04T11:37:05.273Z,32.13
2023-03-04T11:39:59.984Z,29.55
2023-03-04T11:41:10.259Z,28.58
2023-03-04T11:42:47.252Z,33.53
2023-03-04T11:43:49.834Z,32.75
2023-03-04T11:44:52.531Z,33.15
2023-03-04T11:46:28.742Z,31.98
2023-03-04T11:47:33.747Z,30.90
2023-03-04T11:48:52.578Z,28.20
2023-03-04T11:50:12.662Z,29.30
2023-03-04T11:51:33.418Z,28.10
2023-03-04T11:52:48.222Z,28.98
2023-03-04T11:54:03.778Z,30.40
2023-03-04T11:55:13.960Z,31.17
2023-03-04T11:56:54.444Z,31.02
2023-03-04T11:58:31.822Z,29.48
2023-03-04T12:00:02.281Z,28.02
2023-03-04T12:01:34.794Z,30.13
2023-03-04T12:03:03.280Z,30.40
2023-03-04T12:04:18.028Z,29.25
2023-03-04T12:05:32.577Z,30.67
2023-03-04T12:06:50.352Z,31.30
2023-03-04T12:08:20.621Z,30.88
2023-03-04T12:09:39.804Z,28.92
2023-03-04T12:10:55.301Z,31.48
2023-03-04T12:12:22.184Z,30.45
2023-03-04T12:13:45.089Z,30.45
2023-03-04T12:16:28.732Z,29.50
2023-03-04T12:17:40.199Z,31.17
2023-03-04T12:19:06.845Z,32.42
2023-03-04T12:20:46.762Z,30.70
2023-03-04T12:22:15.006Z,30.90
2023-03-04T12:23:38.500Z,30.67
2023-03-04T12:25:02.392Z,29.02
2023-03-04T12:26:39.461Z,29.52
2023-03-04T12:27:59.529Z,28.48
2023-03-04T12:29:07.513Z,29.13
2023-03-04T12:31:01.617Z,29.13
2023-03-04T12:32:39.551Z,27.80
2023-03-04T12:34:14.473Z,28.77
2023-03-04T12:35:37.633Z,28.45
2023-03-04T12:36:59.089Z,27.15
2023-03-04T12:38:26.522Z,29.10
2023-03-04T12:40:07.500Z,28.70
2023-03-04T12:41:40.665Z,27.67
2023-03-04T12:43:27.722Z,31.95
2023-03-04T12:44:38.621Z,27.73
2023-03-04T12:45:54.603Z,27.75
2023-03-04T12:47:14.441Z,28.08
2023-03-04T12:48:50.755Z,28.08
2023-03-04T12:50:16.658Z,28.35
2023-03-04T12:51:30.674Z,27.85
2023-03-04T12:52:59.500Z,28.98
2023-03-04T12:54:42.365Z,28.92
2023-03-04T12:55:47.063Z,29.42
2023-03-04T12:56:56.968Z,29.83
2023-03-04T12:57:59.605Z,26.60
2023-03-04T12:59:02.254Z,27.25
2023-03-04T13:00:21.149Z,27.65
2023-03-04T13:01:38.547Z,27.63
2023-03-04T13:02:41.032Z,28.98
2023-03-04T13:04:05.430Z,28.30
2023-03-04T13:05:24.710Z,28.63
2023-03-04T13:07:02.182Z,30.10
2023-03-04T13:08:17.013Z,28.17
2023-03-04T13:09:29.636Z,29.13
2023-03-04T13:10:32.090Z,29.23
2023-03-04T13:11:44.062Z,29.38
2023-03-04T13:12:51.486Z,34.10
2023-03-04T13:14:07.424Z,30.20
2023-03-04T13:15:09.578Z,28.27
2023-03-04T13:16:11.814Z,28.95
2023-03-04T13:17:42.736Z,30.42
2023-03-04T13:18:45.663Z,29.75
2023-03-04T13:19:56.075Z,29.60
2023-03-04T13:21:21.683Z,27.35
2023-03-04T13:22:27.460Z,28.30
2023-03-04T13:23:31.838Z,28.48
2023-03-04T13:24:52.457Z,27.90
2023-03-04T13:25:55.090Z,27.70
2023-03-04T13:26:57.322Z,27.05
2023-03-04T13:28:02.818Z,28.58
2023-03-04T13:29:13.962Z,28.15
2023-03-04T13:30:31.250Z,27.75
2023-03-04T13:32:02.430Z,27.13
2023-03-04T13:33:10.537Z,27.17
2023-03-04T13:34:46.110Z,27.52
2023-03-04T13:35:51.503Z,29.05
2023-03-04T13:36:56.360Z,28.88
2023-03-04T13:38:00.197Z,28.50
2023-03-04T13:39:25.479Z,29.98
2023-03-04T13:40:36.905Z,28.63
2023-03-04T13:41:53.698Z,30.00
2023-03-04T13:42:56.451Z,28.00
2023-03-04T13:44:04.018Z,29.08
2023-03-04T13:45:34.786Z,30.15
2023-03-04T13:46:42.839Z,29.65
2023-03-04T13:47:46.514Z,29.58
2023-03-04T13:48:51.903Z,29.33
2023-03-04T13:50:24.155Z,28.60
2023-03-04T13:51:37.243Z,28.77
2023-03-04T13:52:42.351Z,31.05
2023-03-04T13:53:52.979Z,28.80
2023-03-04T13:55:30.291Z,28.20
2023-03-04T13:57:01.498Z,28.55
2023-03-04T13:58:26.315Z,28.85
2023-03-04T13:59:48.861Z,28.45
2023-03-04T14:00:54.625Z,28.38
2023-03-04T14:02:25.832Z,29.75
2023-03-04T14:03:31.369Z,29.35
2023-03-04T14:04:39.569Z,29.15
2023-03-04T14:05:41.844Z,29.67
2023-03-04T14:06:48.691Z,28.70
2023-03-04T14:07:50.965Z,28.58
2023-03-04T14:08:54.290Z,30.48
2023-03-04T14:10:11.472Z,30.00
2023-03-04T14:11:16.458Z,28.35
2023-03-04T14:12:19.091Z,29.70
2023-03-04T14:13:22.226Z,30.00
2023-03-04T14:14:46.428Z,29.95
2023-03-04T14:15:56.804Z,29.52
2023-03-04T14:17:02.638Z,28.25
2023-03-04T14:18:05.636Z,29.08
2023-03-04T14:19:15.934Z,29.15
2023-03-04T14:20:31.076Z,29.63
2023-03-04T14:21:35.021Z,27.77
2023-03-04T14:22:41.509Z,28.80
2023-03-04T14:23:43.790Z,28.60
2023-03-04T14:25:03.397Z,29.20
2023-03-04T14:26:11.441Z,29.02
2023-03-04T14:27:14.474Z,30.10
2023-03-04T14:28:19.566Z,30.27
2023-03-04T14:29:25.711Z,30.15
2023-03-04T14:30:41.728Z,29.15
2023-03-04T14:31:44.898Z,29.35
2023-03-04T14:32:48.760Z,29.15
2023-03-04T14:33:59.683Z,28.45
2023-03-04T14:35:18.172Z,27.75
2023-03-04T14:36:23.367Z,27.40
2023-03-04T14:37:38.934Z,28.55
2023-03-04T14:38:43.264Z,27.20
2023-03-04T14:39:48.750Z,29.17
2023-03-04T14:41:02.065Z,28.00
2023-03-04T14:42:10.637Z,28.67
2023-03-04T14:43:18.242Z,29.30
2023-03-04T14:44:20.668Z,33.45
2023-03-04T14:45:24.482Z,30.38
2023-03-04T14:46:31.900Z,30.42
2023-03-04T14:47:41.425Z,30.35
2023-03-04T14:48:50.081Z,31.50
2023-03-04T14:49:52.767Z,30.63
2023-03-04T14:50:56.515Z,27.60
2023-03-04T14:51:58.829Z,29.90
2023-03-04T14:53:06.719Z,27.42
2023-03-04T14:54:28.333Z,26.98
2023-03-04T14:55:30.655Z,25.92
2023-03-04T14:56:35.462Z,26.52
2023-03-04T14:57:37.767Z,27.15
2023-03-04T14:58:53.799Z,25.98
2023-03-04T14:59:56.114Z,26.58
2023-03-04T15:01:17.156Z,27.00
2023-03-04T15:02:33.200Z,27.08
2023-03-04T15:03:35.830Z,27.52
2023-03-04T15:04:40.434Z,27.20
2023-03-04T15:05:42.966Z,26.67
2023-03-04T15:06:53.480Z,26.58
2023-03-04T15:08:01.089Z,26.90
2023-03-04T15:09:09.041Z,27.40
2023-03-04T15:10:12.889Z,27.40
2023-03-04T15:11:28.229Z,27.67
2023-03-04T15:12:32.996Z,26.58
2023-03-04T15:13:43.981Z,27.20
2023-03-04T15:14:50.548Z,26.90
2023-03-04T15:16:01.642Z,27.55
2023-03-04T15:17:04.313Z,27.35
2023-03-04T15:18:17.161Z,27.70
2023-03-04T15:19:29.517Z,27.83
2023-03-04T15:21:34.176Z,29.13
2023-03-04T15:23:00.693Z,29.20
2023-03-04T15:24:04.649Z,29.00
2023-03-04T15:25:07.217Z,31.00
2023-03-04T15:26:10.672Z,29.73
2023-03-04T15:27:13.053Z,31.38
2023-03-04T15:28:19.367Z,32.28
2023-03-04T15:29:22.587Z,31.70
2023-03-04T15:30:28.204Z,29.02
2023-03-04T15:31:30.544Z,29.60
2023-03-04T15:32:33.096Z,32.30
2023-03-04T15:33:35.797Z,32.13
2023-03-04T15:34:37.993Z,32.17
2023-03-04T15:35:41.758Z,29.85
2023-03-04T15:36:47.238Z,30.35
2023-03-04T15:37:52.366Z,30.08
2023-03-04T15:38:54.616Z,29.70
2023-03-04T15:39:58.035Z,29.05
2023-03-04T15:41:00.302Z,29.67
2023-03-04T15:42:02.730Z,31.40
2023-03-04T15:43:06.116Z,30.67
2023-03-04T15:44:09.838Z,29.15
2023-03-04T15:45:28.063Z,29.27
2023-03-04T15:46:30.413Z,29.92
2023-03-04T15:47:32.671Z,30.77
2023-03-04T15:48:34.823Z,29.30
2023-03-04T15:49:37.011Z,30.02
2023-03-04T15:50:43.495Z,29.70
2023-03-04T15:51:45.748Z,30.55
2023-03-04T15:52:50.877Z,28.67
2023-03-04T15:53:58.546Z,28.38
2023-03-04T15:55:00.877Z,27.27
2023-03-04T15:56:05.025Z,28.17
2023-03-04T15:57:19.143Z,27.67
2023-03-04T15:58:21.389Z,27.48
2023-03-04T15:59:24.568Z,28.52
2023-03-04T16:00:27.479Z,27.75
2023-03-04T16:01:30.757Z,28.95
2023-03-04T16:02:34.327Z,28.05
2023-03-04T16:03:36.509Z,26.45
2023-03-04T16:04:39.241Z,27.20
2023-03-04T16:05:41.784Z,27.65
2023-03-04T16:06:46.589Z,27.92
2023-03-04T16:07:51.046Z,26.98
2023-03-04T16:08:53.447Z,28.08
2023-03-04T16:10:04.255Z,28.33
2023-03-04T16:11:06.792Z,26.70
2023-03-04T16:12:12.112Z,27.63
2023-03-04T16:13:17.375Z,27.10
2023-03-04T16:14:19.636Z,27.08
2023-03-04T16:15:28.281Z,26.77
2023-03-04T16:16:30.515Z,27.67
2023-03-04T16:17:32.731Z,26.77
2023-03-04T16:18:35.176Z,26.33
2023-03-04T16:19:37.425Z,26.10
2023-03-04T16:20:41.758Z,26.95
2023-03-04T16:21:43.978Z,26.67
2023-03-04T16:22:49.690Z,27.88
2023-03-04T16:23:53.142Z,27.85
2023-03-04T16:24:55.341Z,26.92
2023-03-04T16:25:57.702Z,28.05
2023-03-04T16:26:59.974Z,27.13
2023-03-04T16:28:05.122Z,27.38
2023-03-04T16:29:08.945Z,26.88
2023-03-04T16:30:19.968Z,29.02
2023-03-04T16:31:22.495Z,28.38
2023-03-04T16:32:25.053Z,28.27
2023-03-04T16:33:27.335Z,28.00
2023-03-04T16:34:29.640Z,27.88
2023-03-04T16:35:34.334Z,26.80